Time;durP1;ratioP1;P1;durP2;ratioP2;P2;SDS_P1;SDS_P2;PMS_P1;PMS_P2;Temp;Humidity;BMP_temperature;BMP_pressure;BME280_temperature;BME280_humidity;BME280_pressure;Samples;Min_cycle;Max_cycle;Signal;HPM_P1;HPM_P2
2021/09/29 00:01:15;;;;;;;;;;;17.80;66.60;;;;;;5015888;28;87247;-49
2021/09/29 00:03:41;;;;;;;;;;;17.80;66.60;;;;;;5016481;28;87426;-49
2021/09/29 00:06:07;;;;;;;;;;;17.70;66.60;;;;;;5017799;28;89420;-49
2021/09/29 00:08:32;;;;;;;;;;;17.70;66.50;;;;;;5016000;28;87168;-50
2021/09/29 00:10:58;;;;;;;;;;;17.70;66.60;;;;;;5016394;28;88121;-49
2021/09/29 00:13:25;;;;;;;;;;;17.70;66.60;;;;;;5015871;28;89495;-49
2021/09/29 00:15:51;;;;;;;;;;;17.70;66.60;;;;;;5021856;28;87412;-48
2021/09/29 00:18:17;;;;;;;;;;;17.70;66.60;;;;;;5019444;28;89342;-49
2021/09/29 00:20:42;;;;;;;;;;;17.80;66.70;;;;;;5018758;28;87177;-50
2021/09/29 00:23:08;;;;;;;;;;;17.70;66.60;;;;;;5020060;28;87192;-50
2021/09/29 00:25:34;;;;;;;;;;;17.70;66.70;;;;;;5019874;28;88635;-52
2021/09/29 00:28:00;;;;;;;;;;;17.70;66.70;;;;;;5020608;28;86428;-50
2021/09/29 00:30:26;;;;;;;;;;;17.70;66.80;;;;;;5018343;28;88022;-50
2021/09/29 00:32:52;;;;;;;;;;;17.70;67.40;;;;;;5017408;28;87924;-49
2021/09/29 00:35:17;;;;;;;;;;;17.60;66.70;;;;;;5020358;28;88138;-48
2021/09/29 00:37:44;;;;;;;;;;;17.70;66.80;;;;;;5016833;28;89528;-51
2021/09/29 00:40:10;;;;;;;;;;;17.60;66.80;;;;;;5015703;28;87241;-49
2021/09/29 00:42:35;;;;;;;;;;;17.60;66.80;;;;;;5018596;28;89227;-51
2021/09/29 00:45:01;;;;;;;;;;;17.60;66.80;;;;;;5019958;28;88092;-50
2021/09/29 00:47:29;;;;;;;;;;;17.70;66.80;;;;;;5019134;28;87166;-49
2021/09/29 00:49:55;;;;;;;;;;;17.70;66.70;;;;;;5015346;28;88689;-49
2021/09/29 00:52:20;;;;;;;;;;;17.60;66.80;;;;;;5015574;28;87095;-49
2021/09/29 00:54:46;;;;;;;;;;;17.60;66.80;;;;;;5015554;28;88842;-49
2021/09/29 00:57:11;;;;;;;;;;;17.60;66.90;;;;;;5018416;28;87567;-49
2021/09/29 00:59:37;;;;;;;;;;;17.60;66.80;;;;;;5015362;28;88096;-50
2021/09/29 01:02:03;;;;;;;;;;;17.60;66.80;;;;;;5015019;28;88199;-49
2021/09/29 01:04:29;;;;;;;;;;;17.60;66.90;;;;;;5019285;28;88754;-50
2021/09/29 01:06:58;;;;;;;;;;;17.60;66.90;;;;;;5018950;28;87129;-49
2021/09/29 01:09:35;;;;;;;;;;;17.60;66.90;;;;;;5016726;28;87710;-49
2021/09/29 01:12:06;;;;;;;;;;;17.60;67.00;;;;;;5017043;28;87593;-50
2021/09/29 01:14:44;;;;;;;;;;;17.50;66.90;;;;;;5015441;28;87196;-49
2021/09/29 01:17:10;;;;;;;;;;;17.60;67.00;;;;;;5023466;28;87104;-49
2021/09/29 01:19:54;;;;;;;;;;;17.50;66.90;;;;;;5025231;28;87649;-50
2021/09/29 01:22:23;;;;;;;;;;;17.60;66.90;;;;;;5019803;28;88537;-48
2021/09/29 01:24:54;;;;;;;;;;;17.60;66.80;;;;;;5018765;28;89235;-49
2021/09/29 01:27:22;;;;;;;;;;;17.60;66.80;;;;;;5019460;28;87141;-48
2021/09/29 01:29:47;;;;;;;;;;;17.50;66.80;;;;;;5022740;28;88374;-49
2021/09/29 01:32:13;;;;;;;;;;;17.50;66.90;;;;;;5022519;28;87781;-51
2021/09/29 01:34:39;;;;;;;;;;;17.50;67.00;;;;;;5021812;28;87125;-49
2021/09/29 01:37:09;;;;;;;;;;;17.50;66.90;;;;;;5020545;28;88182;-50
2021/09/29 01:39:36;;;;;;;;;;;17.50;66.90;;;;;;5021711;28;89129;-49
2021/09/29 01:42:02;;;;;;;;;;;17.50;67.00;;;;;;5022556;28;86500;-49
2021/09/29 01:44:27;;;;;;;;;;;17.50;67.00;;;;;;5018098;28;88353;-50
2021/09/29 01:46:53;;;;;;;;;;;17.50;67.00;;;;;;5018438;28;88225;-50
2021/09/29 01:49:24;;;;;;;;;;;17.50;67.00;;;;;;5017458;28;88411;-49
2021/09/29 01:51:51;;;;;;;;;;;17.50;66.90;;;;;;5021310;28;88931;-50
2021/09/29 01:54:17;;;;;;;;;;;17.50;67.00;;;;;;5022053;28;87119;-50
2021/09/29 01:56:44;;;;;;;;;;;17.40;67.10;;;;;;5020155;28;89424;-50
2021/09/29 01:59:09;;;;;;;;;;;17.40;67.10;;;;;;5018034;28;88985;-51
2021/09/29 02:01:36;;;;;;;;;;;17.50;67.20;;;;;;5019032;28;87157;-49
2021/09/29 02:04:02;;;;;;;;;;;17.40;66.90;;;;;;5021121;28;88492;-49
2021/09/29 02:06:27;;;;;;;;;;;17.50;67.10;;;;;;5019527;28;86426;-49
2021/09/29 02:08:53;;;;;;;;;;;17.40;67.10;;;;;;5019487;28;87135;-50
2021/09/29 02:11:18;;;;;;;;;;;17.40;67.00;;;;;;5019910;28;89525;-49
2021/09/29 02:13:44;;;;;;;;;;;17.40;67.20;;;;;;5021032;28;88115;-50
2021/09/29 02:16:09;;;;;;;;;;;17.40;67.10;;;;;;5021432;28;88563;-50
2021/09/29 02:18:35;;;;;;;;;;;17.40;67.10;;;;;;5017702;28;88610;-49
2021/09/29 02:21:01;;;;;;;;;;;17.40;67.10;;;;;;5018691;28;87192;-49
2021/09/29 02:23:26;;;;;;;;;;;17.40;67.10;;;;;;5019654;28;88870;-49
2021/09/29 02:25:53;;;;;;;;;;;17.40;67.10;;;;;;5023402;28;88112;-50
2021/09/29 02:28:18;;;;;;;;;;;17.40;67.10;;;;;;5019688;28;88649;-50
2021/09/29 02:30:44;;;;;;;;;;;17.40;67.20;;;;;;5022107;28;87545;-52
2021/09/29 02:33:10;;;;;;;;;;;17.40;67.30;;;;;;5019947;28;87952;-50
2021/09/29 02:35:35;;;;;;;;;;;17.40;67.20;;;;;;5017320;28;88879;-51
2021/09/29 02:38:01;;;;;;;;;;;17.30;67.20;;;;;;5017382;28;88531;-49
2021/09/29 02:40:26;;;;;;;;;;;17.30;67.30;;;;;;5019626;28;87150;-49
2021/09/29 02:42:52;;;;;;;;;;;17.30;67.30;;;;;;5021023;28;87145;-50
2021/09/29 02:45:17;;;;;;;;;;;17.30;67.10;;;;;;5024386;28;88224;-49
2021/09/29 02:47:43;;;;;;;;;;;17.30;67.10;;;;;;5022011;28;89274;-49
2021/09/29 02:50:08;;;;;;;;;;;17.30;67.20;;;;;;5020980;28;87985;-51
2021/09/29 02:52:35;;;;;;;;;;;17.30;67.10;;;;;;5020322;28;87240;-50
2021/09/29 02:55:00;;;;;;;;;;;17.30;67.20;;;;;;5018780;28;87585;-49
2021/09/29 02:57:26;;;;;;;;;;;17.30;67.20;;;;;;5017615;28;87232;-49
2021/09/29 02:59:51;;;;;;;;;;;17.30;67.20;;;;;;5017338;28;87228;-48
2021/09/29 03:02:17;;;;;;;;;;;17.30;67.20;;;;;;5017830;28;88087;-50
2021/09/29 03:04:42;;;;;;;;;;;17.30;67.50;;;;;;5017616;28;89168;-50
2021/09/29 03:07:08;;;;;;;;;;;17.30;67.30;;;;;;5020353;28;87169;-49
2021/09/29 03:09:33;;;;;;;;;;;17.30;67.30;;;;;;5017415;28;87957;-49
2021/09/29 03:11:59;;;;;;;;;;;17.30;67.40;;;;;;5018940;28;87133;-49
2021/09/29 03:14:25;;;;;;;;;;;17.30;67.40;;;;;;5020096;28;87806;-49
2021/09/29 03:16:50;;;;;;;;;;;17.30;67.30;;;;;;5020990;28;88374;-50
2021/09/29 03:19:16;;;;;;;;;;;17.30;67.40;;;;;;5019690;28;86586;-50
2021/09/29 03:21:41;;;;;;;;;;;17.30;67.40;;;;;;5016824;28;87554;-49
2021/09/29 03:24:07;;;;;;;;;;;17.30;67.50;;;;;;5017739;28;87660;-49
2021/09/29 03:26:33;;;;;;;;;;;17.20;67.40;;;;;;5018809;28;88185;-48
2021/09/29 03:28:59;;;;;;;;;;;17.20;67.40;;;;;;5021543;28;88011;-51
2021/09/29 03:31:24;;;;;;;;;;;17.20;67.50;;;;;;5020115;28;87145;-49
2021/09/29 03:33:50;;;;;;;;;;;17.20;67.50;;;;;;5019976;28;89260;-50
2021/09/29 03:36:16;;;;;;;;;;;17.20;67.40;;;;;;5020249;28;89439;-50
2021/09/29 03:38:41;;;;;;;;;;;17.20;67.50;;;;;;5020427;28;87244;-50
2021/09/29 03:41:07;;;;;;;;;;;17.20;67.30;;;;;;5019723;28;88935;-50
2021/09/29 03:43:32;;;;;;;;;;;17.20;67.40;;;;;;5019237;28;87055;-49
2021/09/29 03:45:58;;;;;;;;;;;17.20;67.30;;;;;;5019070;28;87120;-50
2021/09/29 03:48:23;;;;;;;;;;;17.20;67.30;;;;;;5020354;28;87295;-50
2021/09/29 03:50:49;;;;;;;;;;;17.20;67.40;;;;;;5021957;28;89718;-52
2021/09/29 03:53:15;;;;;;;;;;;17.10;67.50;;;;;;5017092;28;88882;-50
2021/09/29 03:55:40;;;;;;;;;;;17.20;67.40;;;;;;5016509;28;87665;-51
2021/09/29 03:58:06;;;;;;;;;;;17.10;67.50;;;;;;5018124;28;87216;-49
2021/09/29 04:00:31;;;;;;;;;;;17.10;67.60;;;;;;5019463;28;87198;-50
2021/09/29 04:02:57;;;;;;;;;;;17.10;67.40;;;;;;5020140;28;88047;-51
2021/09/29 04:05:22;;;;;;;;;;;17.10;67.60;;;;;;5018509;28;87972;-48
2021/09/29 04:07:48;;;;;;;;;;;17.10;67.60;;;;;;5016747;28;87284;-50
2021/09/29 04:10:13;;;;;;;;;;;17.10;67.50;;;;;;5017142;28;88048;-50
2021/09/29 04:12:42;;;;;;;;;;;17.10;67.60;;;;;;5021371;28;87159;-49
2021/09/29 04:15:08;;;;;;;;;;;17.10;67.80;;;;;;5015329;28;90218;-50
2021/09/29 04:17:34;;;;;;;;;;;17.10;67.50;;;;;;5016291;28;87267;-49
2021/09/29 04:19:59;;;;;;;;;;;17.10;67.50;;;;;;5017027;28;89034;-50
2021/09/29 04:22:25;;;;;;;;;;;17.10;67.50;;;;;;5018102;28;87521;-50
2021/09/29 04:24:50;;;;;;;;;;;17.00;67.50;;;;;;5018547;28;87141;-49
2021/09/29 04:27:16;;;;;;;;;;;17.00;67.30;;;;;;5018975;28;89554;-49
2021/09/29 04:29:42;;;;;;;;;;;17.10;67.40;;;;;;5019694;28;88859;-51
2021/09/29 04:32:08;;;;;;;;;;;17.10;67.40;;;;;;5018950;28;87228;-49
2021/09/29 04:34:33;;;;;;;;;;;17.10;67.30;;;;;;5019743;28;88157;-49
2021/09/29 04:36:59;;;;;;;;;;;17.00;67.40;;;;;;5016211;28;87100;-50
2021/09/29 04:39:25;;;;;;;;;;;17.00;67.50;;;;;;5016414;28;88214;-50
2021/09/29 04:41:50;;;;;;;;;;;16.90;67.60;;;;;;5018013;28;87996;-49
2021/09/29 04:44:16;;;;;;;;;;;16.90;67.50;;;;;;5018323;28;87188;-51
2021/09/29 04:46:41;;;;;;;;;;;17.00;67.50;;;;;;5019394;28;88965;-51
2021/09/29 04:49:07;;;;;;;;;;;17.00;67.50;;;;;;5019670;28;87677;-49
2021/09/29 04:51:33;;;;;;;;;;;17.00;67.40;;;;;;5019605;28;88109;-50
2021/09/29 04:53:59;;;;;;;;;;;17.00;67.30;;;;;;5023252;28;88825;-50
2021/09/29 04:56:25;;;;;;;;;;;17.00;67.40;;;;;;5019431;28;88249;-50
2021/09/29 04:58:50;;;;;;;;;;;17.00;67.40;;;;;;5020009;28;87184;-49
2021/09/29 05:01:19;;;;;;;;;;;17.00;67.50;;;;;;5020882;28;88244;-49
2021/09/29 05:03:44;;;;;;;;;;;16.90;67.50;;;;;;5018083;28;89402;-49
2021/09/29 05:06:10;;;;;;;;;;;16.90;67.50;;;;;;5019978;28;88511;-49
2021/09/29 05:08:35;;;;;;;;;;;16.90;67.50;;;;;;5020956;28;88058;-50
2021/09/29 05:11:19;;;;;;;;;;;16.90;67.40;;;;;;5022064;28;87137;-49
2021/09/29 05:13:46;;;;;;;;;;;16.90;67.40;;;;;;5018818;28;87915;-49
2021/09/29 05:16:12;;;;;;;;;;;16.90;67.30;;;;;;5021678;28;88372;-50
2021/09/29 05:18:37;;;;;;;;;;;16.90;67.30;;;;;;5019680;28;88846;-50
2021/09/29 05:21:03;;;;;;;;;;;16.90;67.40;;;;;;5020971;28;87068;-49
2021/09/29 05:23:28;;;;;;;;;;;16.90;67.40;;;;;;5021856;28;87208;-51
2021/09/29 05:25:55;;;;;;;;;;;16.90;67.30;;;;;;5023025;28;87720;-53
2021/09/29 05:28:26;;;;;;;;;;;16.90;67.40;;;;;;5021928;28;90091;-53
2021/09/29 05:30:51;;;;;;;;;;;16.80;67.40;;;;;;5022101;28;88130;-51
2021/09/29 05:33:17;;;;;;;;;;;16.80;67.30;;;;;;5019222;28;88679;-52
2021/09/29 05:35:43;;;;;;;;;;;16.80;67.30;;;;;;5018638;28;87989;-50
2021/09/29 05:38:08;;;;;;;;;;;16.80;67.40;;;;;;5023088;28;87140;-51
2021/09/29 05:40:34;;;;;;;;;;;16.80;67.40;;;;;;5021034;28;88666;-51
2021/09/29 05:42:59;;;;;;;;;;;16.80;67.30;;;;;;5022559;28;87243;-52
2021/09/29 05:45:25;;;;;;;;;;;16.80;67.30;;;;;;5021902;28;87478;-51
2021/09/29 05:47:51;;;;;;;;;;;16.80;67.30;;;;;;5019521;28;88077;-51
2021/09/29 05:50:16;;;;;;;;;;;16.80;67.20;;;;;;5021956;28;87894;-51
2021/09/29 05:52:42;;;;;;;;;;;16.80;67.10;;;;;;5022426;28;88149;-51
2021/09/29 05:55:08;;;;;;;;;;;16.80;67.20;;;;;;5021730;28;87681;-51
2021/09/29 05:57:33;;;;;;;;;;;16.80;67.20;;;;;;5021731;28;87230;-51
2021/09/29 05:59:59;;;;;;;;;;;16.80;67.30;;;;;;5024877;28;88110;-52
2021/09/29 06:02:24;;;;;;;;;;;16.80;67.20;;;;;;5017693;28;88689;-51
2021/09/29 06:04:50;;;;;;;;;;;16.80;67.20;;;;;;5018385;28;88209;-51
2021/09/29 06:07:17;;;;;;;;;;;16.80;67.20;;;;;;5018170;28;88346;-53
2021/09/29 06:09:42;;;;;;;;;;;16.80;67.20;;;;;;5018529;28;86482;-51
2021/09/29 06:12:08;;;;;;;;;;;16.80;67.20;;;;;;5019190;28;88727;-50
2021/09/29 06:14:34;;;;;;;;;;;16.80;67.10;;;;;;5019496;28;87997;-50
2021/09/29 06:17:12;;;;;;;;;;;16.80;67.10;;;;;;5019823;28;88080;-52
2021/09/29 06:19:38;;;;;;;;;;;16.80;67.10;;;;;;5018124;28;89914;-51
2021/09/29 06:22:05;;;;;;;;;;;16.80;67.30;;;;;;5021327;28;88114;-52
2021/09/29 06:24:31;;;;;;;;;;;16.80;67.20;;;;;;5018396;28;87739;-51
2021/09/29 06:26:56;;;;;;;;;;;16.80;67.70;;;;;;5019286;28;88308;-51
2021/09/29 06:29:22;;;;;;;;;;;16.80;67.10;;;;;;5020265;28;87179;-51
2021/09/29 06:31:48;;;;;;;;;;;16.80;67.20;;;;;;5021651;28;87259;-52
2021/09/29 06:34:13;;;;;;;;;;;16.80;67.20;;;;;;5021600;28;88020;-52
2021/09/29 06:36:39;;;;;;;;;;;16.80;67.10;;;;;;5018374;28;89216;-51
2021/09/29 06:39:04;;;;;;;;;;;16.80;67.20;;;;;;5018222;28;87870;-51
2021/09/29 06:41:30;;;;;;;;;;;16.80;67.10;;;;;;5018240;28;89079;-52
2021/09/29 06:43:55;;;;;;;;;;;16.80;67.10;;;;;;5023251;28;87243;-51
2021/09/29 06:46:21;;;;;;;;;;;16.80;67.20;;;;;;5021269;28;88571;-51
2021/09/29 06:48:46;;;;;;;;;;;16.80;67.20;;;;;;5020218;28;87703;-52
2021/09/29 06:51:12;;;;;;;;;;;16.80;67.30;;;;;;5017226;28;87150;-51
2021/09/29 06:53:39;;;;;;;;;;;16.70;67.30;;;;;;5017543;28;89165;-51
2021/09/29 06:56:05;;;;;;;;;;;16.80;67.40;;;;;;5019202;28;89223;-50
2021/09/29 06:58:31;;;;;;;;;;;16.80;67.30;;;;;;5019322;28;88779;-51
2021/09/29 07:00:57;;;;;;;;;;;16.80;67.20;;;;;;5016755;28;89674;-51
2021/09/29 07:03:22;;;;;;;;;;;16.80;67.30;;;;;;5021316;28;87164;-50
2021/09/29 07:05:48;;;;;;;;;;;16.80;67.30;;;;;;5018116;28;90143;-51
2021/09/29 07:08:14;;;;;;;;;;;16.80;67.30;;;;;;5020342;28;87191;-51
2021/09/29 07:10:39;;;;;;;;;;;16.80;67.20;;;;;;5021744;28;87179;-50
2021/09/29 07:13:05;;;;;;;;;;;16.80;67.20;;;;;;5018427;28;89816;-51
2021/09/29 07:15:30;;;;;;;;;;;16.80;67.10;;;;;;5016818;28;87150;-50
2021/09/29 07:17:58;;;;;;;;;;;16.80;67.20;;;;;;5017847;28;89088;-51
2021/09/29 07:20:24;;;;;;;;;;;16.80;67.20;;;;;;5016348;28;89370;-51
2021/09/29 07:22:49;;;;;;;;;;;16.80;67.00;;;;;;5017931;28;86403;-51
2021/09/29 07:25:15;;;;;;;;;;;16.80;67.10;;;;;;5021123;28;87957;-51
2021/09/29 07:27:40;;;;;;;;;;;16.80;67.20;;;;;;5019809;28;87238;-51
2021/09/29 07:30:07;;;;;;;;;;;16.80;67.10;;;;;;5020500;28;88080;-50
2021/09/29 07:32:33;;;;;;;;;;;16.90;67.20;;;;;;5020436;28;87843;-51
2021/09/29 07:34:59;;;;;;;;;;;16.90;67.10;;;;;;5021093;28;87784;-52
2021/09/29 07:37:24;;;;;;;;;;;16.80;67.20;;;;;;5018832;28;87603;-51
2021/09/29 07:39:51;;;;;;;;;;;16.90;67.10;;;;;;5016457;28;88061;-50
2021/09/29 07:42:16;;;;;;;;;;;16.90;67.10;;;;;;5016734;28;87184;-50
2021/09/29 07:44:42;;;;;;;;;;;16.90;67.20;;;;;;5017865;28;87118;-52
2021/09/29 07:47:08;;;;;;;;;;;16.90;67.10;;;;;;5021632;28;87832;-51
2021/09/29 07:49:34;;;;;;;;;;;16.90;67.10;;;;;;5019179;28;87211;-55
2021/09/29 07:51:59;;;;;;;;;;;16.90;67.20;;;;;;5019579;28;89067;-51
2021/09/29 07:54:29;;;;;;;;;;;16.90;67.20;;;;;;5020073;28;88857;-53
2021/09/29 07:56:55;;;;;;;;;;;16.90;67.20;;;;;;5017245;28;88873;-50
2021/09/29 07:59:22;;;;;;;;;;;16.90;67.20;;;;;;5017096;28;88006;-51
2021/09/29 08:01:48;;;;;;;;;;;16.90;67.20;;;;;;5018027;28;88039;-51
2021/09/29 08:04:16;;;;;;;;;;;16.90;67.40;;;;;;5016359;28;87191;-51
2021/09/29 08:06:42;;;;;;;;;;;16.90;67.50;;;;;;5019786;28;89816;-51
2021/09/29 08:09:07;;;;;;;;;;;16.90;67.50;;;;;;5022257;28;88059;-51
2021/09/29 08:11:33;;;;;;;;;;;16.90;67.60;;;;;;5016227;28;88987;-51
2021/09/29 08:13:58;;;;;;;;;;;16.90;67.50;;;;;;5017116;28;87200;-50
2021/09/29 08:16:24;;;;;;;;;;;16.90;67.70;;;;;;5018518;28;87552;-52
2021/09/29 08:18:49;;;;;;;;;;;16.80;67.70;;;;;;5018653;28;90134;-51
2021/09/29 08:21:16;;;;;;;;;;;16.90;67.70;;;;;;5019870;28;87702;-51
2021/09/29 08:23:45;;;;;;;;;;;16.90;67.40;;;;;;5020038;28;87613;-51
2021/09/29 08:31:50;;;;;;;;;;;16.90;67.50;;;;;;5023677;28;87273;-51
2021/09/29 08:34:22;;;;;;;;;;;16.90;67.30;;;;;;5019938;28;87184;-51
2021/09/29 08:47:15;;;;;;;;;;;16.90;67.40;;;;;;5011006;28;88953;-51
2021/09/29 09:16:32;;;;;;;;;;;17.00;67.60;;;;;;5022765;28;88150;-50
2021/09/29 09:19:03;;;;;;;;;;;16.90;67.70;;;;;;5022114;28;89021;-50
2021/09/29 09:21:30;;;;;;;;;;;16.90;67.30;;;;;;5019312;28;90200;-51
2021/09/29 09:23:58;;;;;;;;;;;17.00;67.70;;;;;;5021121;28;88562;-50
2021/09/29 09:26:24;;;;;;;;;;;16.90;67.50;;;;;;5022324;28;89266;-50
2021/09/29 09:29:02;;;;;;;;;;;16.90;67.60;;;;;;5021169;28;87129;-51
2021/09/29 09:31:28;;;;;;;;;;;17.00;67.40;;;;;;5019462;28;87144;-51
2021/09/29 09:33:54;;;;;;;;;;;17.00;67.50;;;;;;5020435;28;88975;-50
2021/09/29 09:36:31;;;;;;;;;;;16.90;67.40;;;;;;5018620;28;90463;-51
2021/09/29 09:38:57;;;;;;;;;;;16.90;67.40;;;;;;5022857;28;87133;-50
2021/09/29 09:41:24;;;;;;;;;;;16.90;67.60;;;;;;5018375;28;89354;-50
2021/09/29 09:43:53;;;;;;;;;;;16.90;67.70;;;;;;5019339;28;88652;-52
2021/09/29 09:46:22;;;;;;;;;;;16.90;67.70;;;;;;5019786;28;89316;-51
2021/09/29 09:49:07;;;;;;;;;;;17.00;67.60;;;;;;5021372;28;89665;-50
2021/09/29 09:51:45;;;;;;;;;;;17.00;67.60;;;;;;5022651;28;87134;-51
2021/09/29 09:54:11;;;;;;;;;;;16.90;67.50;;;;;;5022457;28;86847;-52
2021/09/29 09:56:37;;;;;;;;;;;16.90;67.50;;;;;;5021119;28;89695;-52
2021/09/29 09:59:07;;;;;;;;;;;16.90;67.70;;;;;;5022087;28;87144;-52
2021/09/29 10:01:32;;;;;;;;;;;17.00;67.60;;;;;;5020247;28;88127;-50
2021/09/29 10:04:08;;;;;;;;;;;16.90;67.70;;;;;;5019190;28;87198;-50
2021/09/29 10:06:34;;;;;;;;;;;16.90;67.70;;;;;;5019687;28;88732;-50
2021/09/29 10:09:08;;;;;;;;;;;16.90;67.80;;;;;;5019632;28;89887;-51
2021/09/29 10:11:47;;;;;;;;;;;16.90;67.80;;;;;;5022184;28;87184;-52
2021/09/29 10:27:59;;;;;;;;;;;17.00;68.00;;;;;;5018952;28;88088;-50
2021/09/29 10:30:33;;;;;;;;;;;17.00;68.00;;;;;;5020445;28;88149;-50
2021/09/29 10:33:01;;;;;;;;;;;17.00;67.80;;;;;;5017361;28;87257;-52
2021/09/29 10:43:51;;;;;;;;;;;17.00;68.00;;;;;;5020626;28;88414;-50
2021/09/29 11:04:07;;;;;;;;;;;17.00;67.90;;;;;;5020064;28;87123;-50
2021/09/29 11:30:36;;;;;;;;;;;17.00;67.90;;;;;;5019837;28;87247;-51
2021/09/29 11:33:05;;;;;;;;;;;17.00;67.90;;;;;;5019437;28;87270;-51
2021/09/29 11:39:18;;;;;;;;;;;17.10;67.90;;;;;;5020027;28;88183;-50
2021/09/29 12:08:45;;;;;;;;;;;17.10;68.10;;;;;;5017829;28;88223;-50
2021/09/29 12:11:17;;;;;;;;;;;17.10;68.00;;;;;;5016967;28;88207;-50
2021/09/29 12:13:45;;;;;;;;;;;17.10;67.90;;;;;;5018174;28;89216;-50
2021/09/29 12:16:11;;;;;;;;;;;17.10;67.90;;;;;;5018243;28;88098;-51
2021/09/29 12:18:37;;;;;;;;;;;17.10;67.90;;;;;;5019174;28;88855;-51
2021/09/29 12:21:03;;;;;;;;;;;17.10;68.00;;;;;;5020055;28;89127;-51
2021/09/29 12:23:28;;;;;;;;;;;17.10;68.20;;;;;;5022460;28;88116;-50
2021/09/29 12:26:07;;;;;;;;;;;17.20;68.00;;;;;;5016460;28;88505;-50
2021/09/29 12:28:46;;;;;;;;;;;17.20;68.00;;;;;;5019922;28;87120;-51
2021/09/29 12:36:15;;;;;;;;;;;17.20;68.00;;;;;;5016973;28;87239;-50
2021/09/29 12:38:50;;;;;;;;;;;17.20;68.10;;;;;;5019447;28;89297;-50
2021/09/29 12:41:16;;;;;;;;;;;17.20;68.10;;;;;;5018606;28;89360;-51
2021/09/29 12:43:42;;;;;;;;;;;17.20;68.00;;;;;;5020265;28;87986;-50
2021/09/29 12:46:12;;;;;;;;;;;17.20;68.10;;;;;;5019668;28;88000;-52
2021/09/29 12:48:41;;;;;;;;;;;17.20;68.00;;;;;;5016436;28;87168;-51
2021/09/29 12:51:09;;;;;;;;;;;17.20;68.20;;;;;;5019536;28;88190;-51
2021/09/29 12:53:48;;;;;;;;;;;17.20;68.10;;;;;;5016923;28;88025;-51
2021/09/29 12:56:17;;;;;;;;;;;17.20;68.10;;;;;;5018842;28;88080;-50
2021/09/29 12:58:44;;;;;;;;;;;17.20;68.00;;;;;;5017775;28;88722;-50
2021/09/29 13:01:09;;;;;;;;;;;17.20;68.70;;;;;;5015782;28;88646;-50
2021/09/29 13:03:35;;;;;;;;;;;17.20;68.00;;;;;;5017407;28;87186;-50
2021/09/29 13:06:00;;;;;;;;;;;17.20;68.10;;;;;;5017893;28;89175;-50
2021/09/29 13:08:26;;;;;;;;;;;17.20;68.00;;;;;;5022468;28;87914;-51
2021/09/29 13:10:52;;;;;;;;;;;17.30;68.00;;;;;;5020354;28;88131;-51
2021/09/29 13:13:18;;;;;;;;;;;17.20;68.20;;;;;;5020832;28;87672;-50
2021/09/29 13:15:46;;;;;;;;;;;17.20;68.00;;;;;;5019068;28;87129;-50
2021/09/29 13:18:28;;;;;;;;;;;17.30;67.90;;;;;;5022843;28;89326;-51
2021/09/29 13:21:08;;;;;;;;;;;17.30;67.80;;;;;;5022716;28;88880;-50
2021/09/29 13:23:38;;;;;;;;;;;17.30;67.90;;;;;;5021312;28;86415;-50
2021/09/29 13:37:00;;;;;;;;;;;17.30;68.00;;;;;;5022306;28;88642;-50
2021/09/29 13:39:26;;;;;;;;;;;17.30;67.90;;;;;;5018821;28;88819;-50
2021/09/29 13:41:53;;;;;;;;;;;17.30;67.60;;;;;;5018801;28;89686;-51
2021/09/29 13:44:19;;;;;;;;;;;17.30;67.90;;;;;;5018535;28;88268;-51
2021/09/29 13:46:46;;;;;;;;;;;17.30;67.80;;;;;;5020831;28;88720;-50
2021/09/29 13:49:12;;;;;;;;;;;17.30;67.70;;;;;;5022758;28;89111;-50
2021/09/29 13:51:38;;;;;;;;;;;17.30;67.70;;;;;;5025659;28;87788;-50
2021/09/29 13:54:14;;;;;;;;;;;17.30;67.70;;;;;;5022317;28;88240;-52
2021/09/29 13:56:48;;;;;;;;;;;17.30;67.60;;;;;;5021605;28;89455;-50
2021/09/29 14:28:34;;;;;;;;;;;17.30;67.70;;;;;;5020388;28;88465;-50
2021/09/29 14:31:48;;;;;;;;;;;17.30;67.60;;;;;;5021066;28;87635;-50
2021/09/29 14:34:07;;;;;;;;;;;17.30;67.50;;;;;;5019340;28;87161;-51
2021/09/29 14:36:33;;;;;;;;;;;17.30;67.60;;;;;;5019580;28;88138;-50
2021/09/29 14:38:59;;;;;;;;;;;17.30;67.50;;;;;;5020720;28;89480;-50
2021/09/29 14:41:24;;;;;;;;;;;17.30;67.10;;;;;;5018060;28;87461;-50
2021/09/29 14:43:50;;;;;;;;;;;17.30;67.50;;;;;;5016981;28;90400;-50
2021/09/29 14:46:17;;;;;;;;;;;17.30;67.50;;;;;;5018415;28;87133;-50
2021/09/29 14:48:43;;;;;;;;;;;17.30;67.40;;;;;;5016926;28;89156;-50
2021/09/29 14:51:10;;;;;;;;;;;17.30;67.50;;;;;;5017801;28;89487;-50
2021/09/29 14:53:36;;;;;;;;;;;17.30;67.40;;;;;;5017180;28;87204;-50
2021/09/29 14:56:04;;;;;;;;;;;17.30;67.50;;;;;;5021947;28;88023;-52
2021/09/29 14:58:30;;;;;;;;;;;17.30;67.50;;;;;;5019715;28;88728;-50
2021/09/29 15:00:55;;;;;;;;;;;17.30;67.50;;;;;;5023879;28;87164;-50
2021/09/29 15:03:23;;;;;;;;;;;17.30;67.30;;;;;;5020826;28;88337;-50
2021/09/29 15:05:48;;;;;;;;;;;17.30;67.40;;;;;;5021317;28;86446;-50
2021/09/29 15:08:14;;;;;;;;;;;17.30;67.40;;;;;;5021343;28;87239;-49
2021/09/29 15:10:39;;;;;;;;;;;17.30;67.50;;;;;;5018225;28;88736;-50
2021/09/29 15:13:07;;;;;;;;;;;17.30;67.50;;;;;;5016336;28;88919;-50
2021/09/29 15:15:35;;;;;;;;;;;17.30;67.50;;;;;;5019573;28;90103;-50
2021/09/29 15:46:58;;;;;;;;;;;17.30;67.50;;;;;;5020261;28;88771;-50
2021/09/29 16:02:18;;;;;;;;;;;17.20;67.40;;;;;;5020270;28;87221;-50
2021/09/29 16:31:28;;;;;;;;;;;17.20;67.00;;;;;;5021640;28;88059;-50
2021/09/29 16:34:01;;;;;;;;;;;17.20;66.80;;;;;;5015679;28;89614;-49
2021/09/29 16:36:27;;;;;;;;;;;17.20;66.90;;;;;;5019995;28;87261;-50
2021/09/29 16:38:52;;;;;;;;;;;17.20;66.70;;;;;;5017988;28;88874;-50
2021/09/29 16:41:19;;;;;;;;;;;17.20;66.80;;;;;;5015410;28;90288;-49
2021/09/29 16:43:45;;;;;;;;;;;17.20;66.90;;;;;;5015480;28;88278;-49
2021/09/29 16:46:14;;;;;;;;;;;17.20;66.80;;;;;;5016610;28;87934;-49
2021/09/29 16:48:39;;;;;;;;;;;17.20;66.70;;;;;;5023345;28;87174;-52
2021/09/29 16:53:36;;;;;;;;;;;17.20;66.80;;;;;;5024376;28;87410;-51
2021/09/29 16:56:02;;;;;;;;;;;17.20;66.70;;;;;;5019377;28;88940;-50
2021/09/29 16:58:44;;;;;;;;;;;17.20;66.70;;;;;;5019023;28;90593;-53
2021/09/29 17:01:11;;;;;;;;;;;17.20;66.70;;;;;;5021046;28;89249;-50
2021/09/29 17:03:38;;;;;;;;;;;17.10;66.80;;;;;;5022895;28;87115;-50
2021/09/29 17:06:04;;;;;;;;;;;17.10;66.70;;;;;;5022715;28;88831;-51
2021/09/29 17:08:30;;;;;;;;;;;17.10;66.80;;;;;;5023076;28;90108;-51
2021/09/29 17:10:56;;;;;;;;;;;17.20;66.80;;;;;;5022442;28;87258;-50
2021/09/29 17:13:23;;;;;;;;;;;17.20;66.70;;;;;;5021741;28;87837;-50
2021/09/29 17:15:51;;;;;;;;;;;17.10;66.80;;;;;;5021107;28;89456;-55
2021/09/29 17:18:16;;;;;;;;;;;17.10;66.80;;;;;;5021583;28;88265;-54
2021/09/29 17:20:42;;;;;;;;;;;17.10;66.90;;;;;;5019943;28;88647;-50
2021/09/29 17:23:10;;;;;;;;;;;17.10;66.90;;;;;;5020742;28;87143;-50
2021/09/29 17:25:35;;;;;;;;;;;17.10;66.90;;;;;;5020125;28;88421;-50
2021/09/29 17:28:01;;;;;;;;;;;17.10;67.00;;;;;;5021304;28;88620;-51
2021/09/29 17:30:30;;;;;;;;;;;17.10;67.00;;;;;;5020198;28;87932;-50
2021/09/29 17:33:17;;;;;;;;;;;17.10;66.90;;;;;;5021415;28;88946;-51
2021/09/29 17:54:08;;;;;;;;;;;17.00;67.00;;;;;;5022298;28;87837;-50
2021/09/29 17:56:34;;;;;;;;;;;17.00;67.00;;;;;;5018598;28;88670;-50
2021/09/29 17:58:59;;;;;;;;;;;17.00;66.90;;;;;;5021470;28;87150;-51
2021/09/29 18:01:29;;;;;;;;;;;17.00;66.90;;;;;;5019422;28;89841;-54
2021/09/29 18:06:29;;;;;;;;;;;17.00;66.80;;;;;;5022178;28;87221;-52
2021/09/29 18:08:55;;;;;;;;;;;17.00;66.70;;;;;;5017315;28;89992;-51
2021/09/29 18:11:20;;;;;;;;;;;17.10;66.70;;;;;;5019219;28;89435;-50
2021/09/29 18:13:46;;;;;;;;;;;17.00;66.60;;;;;;5018540;28;89702;-50
2021/09/29 18:16:11;;;;;;;;;;;17.10;66.60;;;;;;5018369;28;88333;-50
2021/09/29 18:18:37;;;;;;;;;;;17.00;66.60;;;;;;5019943;28;87128;-50
2021/09/29 18:21:02;;;;;;;;;;;17.00;66.80;;;;;;5023715;28;88030;-51
2021/09/29 18:23:28;;;;;;;;;;;17.00;66.70;;;;;;5021438;28;87142;-50
2021/09/29 18:25:54;;;;;;;;;;;17.00;66.80;;;;;;5020664;28;87549;-51
2021/09/29 18:28:19;;;;;;;;;;;17.00;66.80;;;;;;5019811;28;86972;-51
2021/09/29 18:30:45;;;;;;;;;;;17.00;66.60;;;;;;5018938;28;87152;-49
2021/09/29 18:33:18;;;;;;;;;;;17.00;67.30;;;;;;5018760;28;88631;-50
2021/09/29 18:35:45;;;;;;;;;;;17.00;66.80;;;;;;5016303;28;90313;-50
2021/09/29 18:38:13;;;;;;;;;;;17.00;66.70;;;;;;5019697;28;87742;-50
2021/09/29 18:40:39;;;;;;;;;;;17.00;66.80;;;;;;5020656;28;87514;-51
2021/09/29 18:43:05;;;;;;;;;;;17.00;66.70;;;;;;5022562;28;87993;-51
2021/09/29 18:45:31;;;;;;;;;;;17.00;66.70;;;;;;5019911;28;89225;-50
2021/09/29 18:47:56;;;;;;;;;;;17.00;66.60;;;;;;5019491;28;87978;-51
2021/09/29 18:50:22;;;;;;;;;;;17.00;66.60;;;;;;5020800;28;87249;-49